Westgard — PDBQ — position and weather

sailwx.info

Track history (hours):
 
Tides and Currents Weather Stations Pressure Air Temp Water Temp Dewpoint Dewpoint Depression Visibility Wind Speed Wind Dir Waves Ship Positions

Westgard

Last reported at 2015-Sep-01 05:25 UTC. Time now 2015-Sep-01 06:01 UTC.
Position N 53°31' E 009°57'.

Length 89 m; draft 3.5 m.

Type: Ship. MMSI: 246457000.

Date/timePositionNaut miles runAvg speedWind from/ knotsBaromVisibWave heightAir tempDewpointWater temp
2015-Sep-01 05:25N 53°31' E 009°57'0 0.0
2015-Sep-01 04:31N 53°31' E 009°57'0 0.0
2015-Sep-01 03:31N 53°31' E 009°57'0 0.0
2015-Sep-01 02:31N 53°31' E 009°57'0 0.0
2015-Sep-01 01:31N 53°31' E 009°57'1 0.9
2015-Sep-01 00:34N 53°32' E 009°57'1 0.5
2015-Aug-31 23:33N 53°32' E 009°58'0 0.0
2015-Aug-31 22:30N 53°32' E 009°58'0 0.0
2015-Aug-31 21:33N 53°32' E 009°58'0 0.0
2015-Aug-31 20:30N 53°32' E 009°58'0 0.0
2015-Aug-31 19:30N 53°32' E 009°58'0 0.0
2015-Aug-31 18:33N 53°32' E 009°58'0 0.0
2015-Aug-31 17:30N 53°32' E 009°58'0 0.0
2015-Aug-31 16:30N 53°32' E 009°58'0 0.0
2015-Aug-31 15:30N 53°32' E 009°58'0 0.0
2015-Aug-31 14:30N 53°32' E 009°58'0 0.0
2015-Aug-31 13:30N 53°32' E 009°58'0 0.0
2015-Aug-31 12:33N 53°32' E 009°58'0 0.0
2015-Aug-31 11:30N 53°32' E 009°58'0 0.0
2015-Aug-31 10:32N 53°32' E 009°58'0 0.0
2015-Aug-31 09:29N 53°32' E 009°58'0 0.0
2015-Aug-31 08:29N 53°32' E 009°58'0 0.0
2015-Aug-31 07:29N 53°32' E 009°58'0 0.0
2015-Aug-31 06:32N 53°32' E 009°58'0 0.0
2015-Aug-31 05:32N 53°32' E 009°58'0 0.0
2015-Aug-31 04:29N 53°32' E 009°58'0 0.0
2015-Aug-31 03:23N 53°32' E 009°58'0 0.0
2015-Aug-31 02:29N 53°32' E 009°58'0 0.0
2015-Aug-31 01:32N 53°32' E 009°58'0 0.0
2015-Aug-31 00:32N 53°32' E 009°58'0 0.0
2015-Aug-30 23:29N 53°32' E 009°58'0 0.0
2015-Aug-30 22:26N 53°32' E 009°58'0 0.0
2015-Aug-30 21:29N 53°32' E 009°58'0 0.0
2015-Aug-30 20:29N 53°32' E 009°58'0 0.0
2015-Aug-30 19:29N 53°32' E 009°58'1 1.0
2015-Aug-30 18:33N 53°32' E 009°56'1 0.8
2015-Aug-30 17:33N 53°31' E 009°57'0 0.0
2015-Aug-30 16:33N 53°31' E 009°57'0 0.0
2015-Aug-30 15:30N 53°31' E 009°57'0 0.0
2015-Aug-30 14:30N 53°31' E 009°57'0 0.0
2015-Aug-30 13:33N 53°31' E 009°57'0 0.0
2015-Aug-30 12:30N 53°31' E 009°57'0 0.0
2015-Aug-30 11:30N 53°31' E 009°57'0 0.0
2015-Aug-30 10:30N 53°31' E 009°57'0 0.0
2015-Aug-30 09:33N 53°31' E 009°57'0 0.3
2015-Aug-30 08:33N 53°31' E 009°56'5 5.4
2015-Aug-30 07:33N 53°33' E 009°48'9 9.4
2015-Aug-30 06:34N 53°37' E 009°33'9 9.2
2015-Aug-30 05:33N 53°45' E 009°25'9 8.8
2015-Aug-30 04:33N 53°52' E 009°17'4 3.9
2015-Aug-30 03:29N 53°53' E 009°10'0 0.1
2015-Aug-30 02:32N 53°53' E 009°10'0 0.1
2015-Aug-30 01:32N 53°53' E 009°10'0 0.0
2015-Aug-30 00:32N 53°53' E 009°10'0 0.0
2015-Aug-29 23:29N 53°53' E 009°10'0 0.0
2015-Aug-29 22:23N 53°53' E 009°10'0 0.0
2015-Aug-29 21:32N 53°53' E 009°10'0 0.1
2015-Aug-29 20:32N 53°53' E 009°09'0 0.0
2015-Aug-29 19:29N 53°53' E 009°09'0 0.0
2015-Aug-29 18:23N 53°53' E 009°09'0 0.0
2015-Aug-29 17:32N 53°53' E 009°09'0 0.0
2015-Aug-29 16:32N 53°53' E 009°10'0 0.0
2015-Aug-29 15:31N 53°53' E 009°10'0 0.0
2015-Aug-29 14:32N 53°53' E 009°10'0 0.1
2015-Aug-29 13:26N 53°53' E 009°10'0 0.0
2015-Aug-29 12:26N 53°53' E 009°10'2 1.8
2015-Aug-29 11:33N 53°53' E 009°07'1313.1
2015-Aug-29 10:33N 53°51' E 008°45'1212.4
2015-Aug-29 09:33N 53°59' E 008°28'1212.3
2015-Aug-29 08:33N 53°60' E 008°07'1110.8
2015-Aug-29 07:33N 54°04' E 007°50'1110.6
2015-Aug-29 06:33N 54°10' E 007°35'1010.5
2015-Aug-29 05:33N 54°14' E 007°19'10 9.9
2015-Aug-29 04:33N 54°17' E 007°03'  
2015-Aug-23 11:21N 56°33' W 002°12'11410.5
2015-Aug-23 00:30N 54°59' W 000°18'1010.7
2015-Aug-22 23:33N 54°50' W 000°08'1010.5
2015-Aug-22 22:33N 54°42' E 000°02'1010.1
2015-Aug-22 21:33N 54°33' E 000°11'1010.1
2015-Aug-22 20:33N 54°25' E 000°21'1010.1
2015-Aug-22 19:33N 54°17' E 000°31'1010.5
2015-Aug-22 18:33N 54°08' E 000°41'1111.1
2015-Aug-22 17:32N 53°59' E 000°52'1311.7
2015-Aug-22 16:28N 53°49' E 001°06'2611.5
2015-Aug-22 14:14N 53°27' E 001°29'710.4
2015-Aug-22 13:33N 53°21' E 001°35'10 9.6
2015-Aug-22 12:33N 53°13' E 001°44'9 9.3
2015-Aug-22 11:33N 53°06' E 001°53'9 9.3
2015-Aug-22 10:33N 52°58' E 002°01'  
Track history (hours):
 
Tides and Currents Weather Stations Pressure Air Temp Water Temp Dewpoint Dewpoint Depression Visibility Wind Speed Wind Dir Waves Ship Positions

Westgard

Last reported at 2015-Sep-01 05:25 UTC. Time now 2015-Sep-01 06:01 UTC.
Position N 53°31' E 009°57'.

Length 89 m; draft 3.5 m.

Type: Ship. MMSI: 246457000.

Date/timePositionNaut miles runAvg speedWind from/ knotsBaromVisibWave heightAir tempDewpointWater temp
2015-Sep-01 05:25N 53°31' E 009°57'0 0.0
2015-Sep-01 04:31N 53°31' E 009°57'0 0.0
2015-Sep-01 03:31N 53°31' E 009°57'0 0.0
2015-Sep-01 02:31N 53°31' E 009°57'0 0.0
2015-Sep-01 01:31N 53°31' E 009°57'1 0.9
2015-Sep-01 00:34N 53°32' E 009°57'1 0.5
2015-Aug-31 23:33N 53°32' E 009°58'0 0.0
2015-Aug-31 22:30N 53°32' E 009°58'0 0.0
2015-Aug-31 21:33N 53°32' E 009°58'0 0.0
2015-Aug-31 20:30N 53°32' E 009°58'0 0.0
2015-Aug-31 19:30N 53°32' E 009°58'0 0.0
2015-Aug-31 18:33N 53°32' E 009°58'0 0.0
2015-Aug-31 17:30N 53°32' E 009°58'0 0.0
2015-Aug-31 16:30N 53°32' E 009°58'0 0.0
2015-Aug-31 15:30N 53°32' E 009°58'0 0.0
2015-Aug-31 14:30N 53°32' E 009°58'0 0.0
2015-Aug-31 13:30N 53°32' E 009°58'0 0.0
2015-Aug-31 12:33N 53°32' E 009°58'0 0.0
2015-Aug-31 11:30N 53°32' E 009°58'0 0.0
2015-Aug-31 10:32N 53°32' E 009°58'0 0.0
2015-Aug-31 09:29N 53°32' E 009°58'0 0.0
2015-Aug-31 08:29N 53°32' E 009°58'0 0.0
2015-Aug-31 07:29N 53°32' E 009°58'0 0.0
2015-Aug-31 06:32N 53°32' E 009°58'0 0.0
2015-Aug-31 05:32N 53°32' E 009°58'0 0.0
2015-Aug-31 04:29N 53°32' E 009°58'0 0.0
2015-Aug-31 03:23N 53°32' E 009°58'0 0.0
2015-Aug-31 02:29N 53°32' E 009°58'0 0.0
2015-Aug-31 01:32N 53°32' E 009°58'0 0.0
2015-Aug-31 00:32N 53°32' E 009°58'0 0.0
2015-Aug-30 23:29N 53°32' E 009°58'0 0.0
2015-Aug-30 22:26N 53°32' E 009°58'0 0.0
2015-Aug-30 21:29N 53°32' E 009°58'0 0.0
2015-Aug-30 20:29N 53°32' E 009°58'0 0.0
2015-Aug-30 19:29N 53°32' E 009°58'1 1.0
2015-Aug-30 18:33N 53°32' E 009°56'1 0.8
2015-Aug-30 17:33N 53°31' E 009°57'0 0.0
2015-Aug-30 16:33N 53°31' E 009°57'0 0.0
2015-Aug-30 15:30N 53°31' E 009°57'0 0.0
2015-Aug-30 14:30N 53°31' E 009°57'0 0.0
2015-Aug-30 13:33N 53°31' E 009°57'0 0.0
2015-Aug-30 12:30N 53°31' E 009°57'0 0.0
2015-Aug-30 11:30N 53°31' E 009°57'0 0.0
2015-Aug-30 10:30N 53°31' E 009°57'0 0.0
2015-Aug-30 09:33N 53°31' E 009°57'0 0.3
2015-Aug-30 08:33N 53°31' E 009°56'5 5.4
2015-Aug-30 07:33N 53°33' E 009°48'9 9.4
2015-Aug-30 06:34N 53°37' E 009°33'9 9.2
2015-Aug-30 05:33N 53°45' E 009°25'9 8.8
2015-Aug-30 04:33N 53°52' E 009°17'4 3.9
2015-Aug-30 03:29N 53°53' E 009°10'0 0.1
2015-Aug-30 02:32N 53°53' E 009°10'0 0.1
2015-Aug-30 01:32N 53°53' E 009°10'0 0.0
2015-Aug-30 00:32N 53°53' E 009°10'0 0.0
2015-Aug-29 23:29N 53°53' E 009°10'0 0.0
2015-Aug-29 22:23N 53°53' E 009°10'0 0.0
2015-Aug-29 21:32N 53°53' E 009°10'0 0.1
2015-Aug-29 20:32N 53°53' E 009°09'0 0.0
2015-Aug-29 19:29N 53°53' E 009°09'0 0.0
2015-Aug-29 18:23N 53°53' E 009°09'0 0.0
2015-Aug-29 17:32N 53°53' E 009°09'0 0.0
2015-Aug-29 16:32N 53°53' E 009°10'0 0.0
2015-Aug-29 15:31N 53°53' E 009°10'0 0.0
2015-Aug-29 14:32N 53°53' E 009°10'0 0.1
2015-Aug-29 13:26N 53°53' E 009°10'0 0.0
2015-Aug-29 12:26N 53°53' E 009°10'2 1.8
2015-Aug-29 11:33N 53°53' E 009°07'1313.1
2015-Aug-29 10:33N 53°51' E 008°45'1212.4
2015-Aug-29 09:33N 53°59' E 008°28'1212.3
2015-Aug-29 08:33N 53°60' E 008°07'1110.8
2015-Aug-29 07:33N 54°04' E 007°50'1110.6
2015-Aug-29 06:33N 54°10' E 007°35'1010.5
2015-Aug-29 05:33N 54°14' E 007°19'10 9.9
2015-Aug-29 04:33N 54°17' E 007°03'  
2015-Aug-23 11:21N 56°33' W 002°12'11410.5
2015-Aug-23 00:30N 54°59' W 000°18'1010.7
2015-Aug-22 23:33N 54°50' W 000°08'1010.5
2015-Aug-22 22:33N 54°42' E 000°02'1010.1
2015-Aug-22 21:33N 54°33' E 000°11'1010.1
2015-Aug-22 20:33N 54°25' E 000°21'1010.1
2015-Aug-22 19:33N 54°17' E 000°31'1010.5
2015-Aug-22 18:33N 54°08' E 000°41'1111.1
2015-Aug-22 17:32N 53°59' E 000°52'1311.7
2015-Aug-22 16:28N 53°49' E 001°06'2611.5
2015-Aug-22 14:14N 53°27' E 001°29'710.4
2015-Aug-22 13:33N 53°21' E 001°35'10 9.6
2015-Aug-22 12:33N 53°13' E 001°44'9 9.3
2015-Aug-22 11:33N 53°06' E 001°53'9 9.3
2015-Aug-22 10:33N 52°58' E 002°01'  

Dump ship's entire track history